KSEA METAR and TAF | Updated Today

KSEA METAR

Seattle Tacoma International Airport

Observation time: 50 min. ago

KSEA 200553Z 36005KT 10SM FEW250 08/03 A3026 RMK AO2 SLP253 T00830033 10144 20083 50005

Need help? Read our tutorial on how to read METARs or read the parsed version below.

Seattle Tacoma International Airport (KSEA) METAR

  • Weather conditions on Fri, 20 May 2022 05:53:00 +0000 (50 min. ago):
  • Present conditions: Dry
  • Clouds: A few at 7620 meters
  • Visibility: 16093 meters
  • Wind: 360 degrees at 5 knots
  • Temperature: 8 celsius
  • Dew point: 3 celsius
  • Pressure: 30.26 inHg
  • Remarks: AO2 SLP253 T00830033 10144 20083 50005


Useful to know...

KSEA TAF

Seattle Tacoma International Airport

KSEA 200528Z 2006/2112 VRB03KT P6SM BKN060 BKN100 FM201800 27004KT P6SM BKN060 BKN250 FM202100 31005KT P6SM BKN250
Observation time: 75 min. ago
Need help? Read our tutorial on how to read TAFs or read the parsed version below.

Parsed version of TAF for Seattle Tacoma International Airport (KSEA)

  • From 20 May at 06:00 UTC, to day 21 of the month at 12:00 UTC
  • Clouds: Broken sky at 1829 meters; broken sky at 3048 meters
  • Wind: Variable at 3
  • From day 20 of the month at 18:00 UTC
  • Clouds: Broken sky at 1829 meters; broken sky at 7620 meters
  • Wind: 270 degrees at 4
  • From day 20 of the month at 21:00 UTC
  • Clouds: Broken sky at 7620 meters
  • Wind: 310 degrees at 5